Jerry City, Ohio
Current Conditions -  °F | °C
As of 9:53 AM on Saturday 25 Oct 2014 (Local Time) from KFDY Reporting Station
Haze Haze  
Wind Chill: 59°   Ceiling: Unl
Heat Index: 59°   Visibility: 5mi
Dew Point: 50°   Wind: 10mph
Humidity: 72%   Direction: 230°SW
Pressure: 29.89"   Gusts: NA
Location:  41.25°N, 83.6°W
Report Text: KFDY 251353Z AUTO 23009KT 5SM HZ FEW032 15/10 A2989 RMK AO2 SLP120 T01500100
Loading
Personal Weather Stations






























Interactive Weather Map New forecast layout! Learn more

10-Day Weather Forecast

Advertisements
Track Severe Weather on mobile